NCAR-RAP Real-Time Weather Data

Output produced by METARs form (06 May 2021  15:40 UTC)
found at http://weather.rap.ucar.edu/surface/
 
KPUW 061453Z AUTO 10019KT 9SM CLR 17/M01 A2993 RMK AO2 SLP127 T01671011 56007
KPUW 061353Z AUTO 10018KT 10SM CLR 15/M02 A2993 RMK AO2 SLP127 T01501017
KPUW 061253Z AUTO 09015KT 10SM CLR 14/M02 A2994 RMK AO2 SLP129 T01391022
KPUW 061153Z AUTO 09015KT 10SM CLR 14/M02 A2995 RMK AO2 SLP132 T01441022 10172 20139 56018
KPUW 061053Z AUTO 09014KT 10SM CLR 15/M02 A2997 RMK AO2 SLP137 T01501022
KPUW 060953Z AUTO 09013KT 10SM CLR 16/M02 A2999 RMK AO2 SLP143 T01561022
KPUW 060853Z AUTO 09012KT 10SM CLR 16/M01 A3001 RMK AO2 SLP152 T01561011 58011
KPUW 060753Z AUTO 09005KT 10SM FEW120 16/M01 A3004 RMK AO2 SLP161 T01611011 402280044
KPUW 060653Z AUTO 09013KT 10SM SCT100 16/M01 A3002 RMK AO2 SLP156 T01611006
KPUW 060553Z AUTO 11011KT 10SM CLR 17/M02 A3004 RMK AO2 SLP166 T01671017 10228 20150 58010
KPUW 060453Z AUTO 10009KT 10SM CLR 16/M02 A3006 RMK AO2 SLP174 T01561022
KPUW 060353Z AUTO 06006KT 10SM CLR 15/M02 A3008 RMK AO2 SLP182 T01501022
KPUW 060253Z AUTO 05005KT 10SM CLR 18/M03 A3008 RMK AO2 SLP180 T01781028 56005